In Rescue
 
Open Full Screen Window  High Contrast Mode
September 19, 2019 5:06 PM EDT
Weather Information
Wind Direction
  ---
Wind Speed
  00 kt (0 mph)
Wind Gust
  00 kt (0 mph)
Altimeter
30.27 in
Visibility
10 SM
Temperature
22° C
72° F
Dewpoint
04° C
39° F
Humidity
31%
Sky Condition
Clear
VFR

METAR KFSO 192106Z AUTO 00000KT 10SM CLR 22/04 A3027 RMK AO2 T02240043

FAA Disclaimer: The data displayed is for advisory purposes only and is not to be used for flight planning or operations.